Time;durP1;ratioP1;P1;durP2;ratioP2;P2;SDS_P1;SDS_P2;PMS_P1;PMS_P2;Temp;Humidity;BMP_temperature;BMP_pressure;BME280_temperature;BME280_humidity;BME280_pressure;Samples;Min_cycle;Max_cycle;Signal;HPM_P1;HPM_P2
2023/06/27 00:02:02;;;;;;;6.07;3.40;;;;;;;15.77;100.00;100708.50;4973618;28;20042;-76
2023/06/27 00:04:29;;;;;;;4.75;3.47;;;;;;;15.63;100.00;100702.00;4958174;28;20039;-76
2023/06/27 00:06:56;;;;;;;3.47;3.17;;;;;;;15.62;100.00;100701.13;4972941;28;20042;-76
2023/06/27 00:09:23;;;;;;;4.25;3.30;;;;;;;15.62;100.00;100714.44;4989176;28;20038;-76
2023/06/27 00:11:50;;;;;;;5.85;3.70;;;;;;;15.66;100.00;100717.88;4967701;28;20129;-76
2023/06/27 00:14:19;;;;;;;3.90;3.03;;;;;;;15.65;100.00;100713.47;4973312;28;20049;-76
2023/06/27 00:16:46;;;;;;;9.32;4.57;;;;;;;15.62;100.00;100717.09;4973550;28;20142;-77
2023/06/27 00:19:12;;;;;;;4.95;3.10;;;;;;;15.53;100.00;100720.09;4977779;28;20137;-76
2023/06/27 00:21:39;;;;;;;6.75;4.30;;;;;;;15.58;100.00;100711.94;4971485;28;20042;-76
2023/06/27 00:24:06;;;;;;;4.15;3.50;;;;;;;15.55;100.00;100723.56;4968918;28;20054;-75
2023/06/27 00:26:33;;;;;;;5.88;3.83;;;;;;;15.59;100.00;100719.00;4976602;28;20434;-76
2023/06/27 00:29:00;;;;;;;7.55;3.42;;;;;;;15.55;100.00;100730.69;4971845;28;20035;-76
2023/06/27 00:31:27;;;;;;;5.68;3.70;;;;;;;15.47;100.00;100733.69;4973860;28;20133;-76
2023/06/27 00:33:53;;;;;;;5.10;3.53;;;;;;;15.44;100.00;100737.31;4980030;28;20471;-77
2023/06/27 00:36:20;;;;;;;4.93;3.38;;;;;;;15.41;100.00;100740.09;4972235;28;20042;-76
2023/06/27 00:38:47;;;;;;;5.75;3.40;;;;;;;15.33;100.00;100733.34;4955836;28;20035;-76
2023/06/27 00:41:14;;;;;;;5.30;3.75;;;;;;;15.28;100.00;100740.63;4988376;28;20042;-77
2023/06/27 00:43:40;;;;;;;6.03;3.65;;;;;;;15.33;100.00;100749.31;4989923;28;20506;-76
2023/06/27 00:46:08;;;;;;;6.13;3.80;;;;;;;15.31;100.00;100743.19;4971944;28;20073;-77
2023/06/27 00:48:36;;;;;;;7.28;4.07;;;;;;;15.34;100.00;100740.41;4979613;28;20042;-76
2023/06/27 00:51:03;;;;;;;5.60;3.20;;;;;;;15.34;100.00;100746.59;4956766;28;20050;-77
2023/06/27 00:53:30;;;;;;;5.00;3.70;;;;;;;15.23;100.00;100747.94;4972433;28;20046;-77
2023/06/27 00:55:57;;;;;;;6.55;4.07;;;;;;;15.24;100.00;100747.00;4974520;28;20094;-76
2023/06/27 00:58:24;;;;;;;8.90;3.70;;;;;;;15.14;100.00;100749.16;4957119;28;20042;-77
2023/06/27 01:00:51;;;;;;;5.43;3.72;;;;;;;15.12;100.00;100746.53;4956356;28;20039;-76
2023/06/27 01:03:18;;;;;;;5.03;3.95;;;;;;;15.17;100.00;100749.91;4989344;28;20058;-76
2023/06/27 01:05:45;;;;;;;9.60;4.20;;;;;;;15.14;100.00;100742.06;4981524;28;20049;-76
2023/06/27 01:08:22;;;;;;;6.32;3.50;;;;;;;15.12;100.00;100740.34;4972974;28;20150;-77
2023/06/27 01:10:52;;;;;;;6.43;3.47;;;;;;;15.09;100.00;100754.66;4972267;28;20781;-77
2023/06/27 01:13:33;;;;;;;4.40;3.45;;;;;;;15.13;100.00;100748.31;4993476;28;20776;-77
2023/06/27 01:16:00;;;;;;;8.00;4.00;;;;;;;15.10;100.00;100747.53;4971855;28;20092;-76
2023/06/27 01:18:27;;;;;;;6.75;3.40;;;;;;;15.05;100.00;100747.72;4968805;28;20050;-77
2023/06/27 01:20:54;;;;;;;4.38;3.53;;;;;;;14.99;100.00;100745.28;4958016;28;20154;-77
2023/06/27 01:23:33;;;;;;;6.15;4.00;;;;;;;14.86;100.00;100744.84;4973094;28;20042;-75
2023/06/27 01:26:09;;;;;;;6.07;4.20;;;;;;;14.90;100.00;100751.81;4976037;28;20045;-76
2023/06/27 01:28:36;;;;;;;8.10;4.13;;;;;;;14.93;100.00;100748.16;4954902;28;20050;-77
2023/06/27 01:31:03;;;;;;;5.68;3.40;;;;;;;14.88;100.00;100752.78;4989406;28;20065;-77
2023/06/27 01:33:49;;;;;;;9.60;4.10;;;;;;;14.85;100.00;100756.41;4988390;28;20049;-77
2023/06/27 01:36:20;;;;;;;4.13;3.47;;;;;;;14.78;100.00;100762.00;4986048;28;20042;-76
2023/06/27 01:39:02;;;;;;;8.90;4.60;;;;;;;14.71;100.00;100753.38;4971012;28;20141;-76
2023/06/27 01:41:31;;;;;;;4.55;4.13;;;;;;;14.68;100.00;100753.50;4972293;28;20060;-76
2023/06/27 01:44:01;;;;;;;8.10;3.97;;;;;;;14.69;100.00;100755.22;4975064;28;20049;-76
2023/06/27 01:46:28;;;;;;;7.28;4.10;;;;;;;14.71;100.00;100755.16;4992339;28;20516;-77
2023/06/27 01:48:55;;;;;;;5.95;3.95;;;;;;;14.72;100.00;100748.97;4996133;28;20120;-76
2023/06/27 01:51:22;;;;;;;6.47;4.18;;;;;;;14.69;100.00;100749.91;4949905;28;20043;-76
2023/06/27 01:53:49;;;;;;;4.95;3.67;;;;;;;14.61;100.00;100754.63;4987550;28;20038;-76
2023/06/27 01:56:16;;;;;;;7.07;3.88;;;;;;;14.54;100.00;100753.13;4971127;28;20038;-76
2023/06/27 01:58:43;;;;;;;8.25;3.78;;;;;;;14.57;100.00;100759.22;4971612;28;20038;-77
2023/06/27 02:01:10;;;;;;;9.20;3.50;;;;;;;14.62;100.00;100749.25;4970491;28;20137;-77
2023/06/27 02:03:37;;;;;;;7.15;4.30;;;;;;;14.64;100.00;100755.41;4969640;28;20042;-76
2023/06/27 02:06:03;;;;;;;6.30;3.60;;;;;;;14.53;100.00;100749.59;4955717;28;20521;-77
2023/06/27 02:08:30;;;;;;;4.95;3.70;;;;;;;14.47;100.00;100747.16;4999296;28;20645;-77
2023/06/27 02:10:57;;;;;;;9.48;3.83;;;;;;;14.44;100.00;100746.34;4956615;28;20402;-76
2023/06/27 02:13:23;;;;;;;4.80;4.25;;;;;;;14.42;100.00;100748.22;4956256;28;20048;-77
2023/06/27 02:15:50;;;;;;;8.75;3.90;;;;;;;14.42;100.00;100743.75;4970314;28;20046;-76
2023/06/27 02:18:17;;;;;;;7.32;3.75;;;;;;;14.47;100.00;100751.63;4955162;28;20046;-76
2023/06/27 02:20:43;;;;;;;10.52;4.35;;;;;;;14.37;100.00;100746.56;4968046;28;20034;-77
2023/06/27 02:23:10;;;;;;;4.80;3.92;;;;;;;14.32;100.00;100753.84;4970898;28;20050;-76
2023/06/27 02:25:37;;;;;;;8.25;4.22;;;;;;;14.26;100.00;100756.69;4971032;28;20049;-77
2023/06/27 02:28:05;;;;;;;7.97;3.75;;;;;;;14.24;100.00;100753.25;4969446;28;20755;-77
2023/06/27 02:30:32;;;;;;;4.60;3.33;;;;;;;14.16;100.00;100754.41;4968409;28;20050;-77
2023/06/27 02:32:59;;;;;;;8.90;3.83;;;;;;;14.17;100.00;100749.03;4957015;28;20049;-77
2023/06/27 02:35:25;;;;;;;10.02;4.00;;;;;;;14.16;100.00;100747.31;4972020;28;20041;-77
2023/06/27 02:37:52;;;;;;;5.85;3.95;;;;;;;14.35;100.00;100747.53;4966363;28;20053;-76
2023/06/27 02:40:19;;;;;;;5.32;3.42;;;;;;;14.38;100.00;100750.13;4954274;28;20091;-76
2023/06/27 02:42:46;;;;;;;7.38;4.18;;;;;;;14.26;100.00;100754.03;4968536;28;20046;-77
2023/06/27 02:45:12;;;;;;;7.72;4.05;;;;;;;14.16;100.00;100757.94;4987103;28;20046;-77
2023/06/27 02:47:39;;;;;;;6.45;4.22;;;;;;;14.17;100.00;100753.50;4985207;28;20130;-77
2023/06/27 02:50:06;;;;;;;7.88;4.22;;;;;;;14.18;100.00;100749.91;4968794;28;20046;-76
2023/06/27 02:52:33;;;;;;;8.50;4.32;;;;;;;14.17;100.00;100749.03;4987868;28;20050;-76
2023/06/27 02:54:59;;;;;;;6.90;3.88;;;;;;;14.14;100.00;100750.94;4955754;28;20050;-76
2023/06/27 02:57:26;;;;;;;8.43;4.53;;;;;;;14.15;100.00;100755.34;4971828;28;20481;-77
2023/06/27 02:59:53;;;;;;;8.98;4.65;;;;;;;14.21;100.00;100752.47;4971720;28;20038;-76
2023/06/27 03:02:19;;;;;;;9.57;4.30;;;;;;;14.12;100.00;100753.63;4970942;28;20062;-77
2023/06/27 03:04:47;;;;;;;8.27;4.45;;;;;;;14.09;100.00;100756.41;4976593;28;20055;-76
2023/06/27 03:07:14;;;;;;;9.20;4.45;;;;;;;14.13;100.00;100754.53;4955040;28;20051;-76
2023/06/27 03:09:41;;;;;;;8.27;4.30;;;;;;;14.24;100.00;100749.72;4956096;28;20039;-76
2023/06/27 03:12:08;;;;;;;10.63;4.80;;;;;;;14.24;100.00;100755.03;4955714;28;20429;-77
2023/06/27 03:14:34;;;;;;;6.43;4.50;;;;;;;14.33;100.00;100752.06;4981464;28;20054;-77
2023/06/27 03:17:01;;;;;;;8.60;5.38;;;;;;;14.38;100.00;100752.78;4970764;28;20046;-76
2023/06/27 03:19:28;;;;;;;7.95;4.25;;;;;;;14.34;100.00;100748.47;4958133;28;20046;-76
2023/06/27 03:22:09;;;;;;;9.13;4.22;;;;;;;14.42;100.00;100754.41;4974836;28;20133;-76
2023/06/27 03:24:36;;;;;;;7.07;4.82;;;;;;;14.56;100.00;100752.16;4976765;28;20042;-75
2023/06/27 03:27:03;;;;;;;6.85;4.45;;;;;;;14.50;100.00;100755.03;4982316;28;20049;-77
2023/06/27 03:29:30;;;;;;;11.43;5.28;;;;;;;14.59;100.00;100754.69;4957803;28;20076;-76
2023/06/27 03:31:57;;;;;;;7.90;5.22;;;;;;;14.66;100.00;100750.03;4954871;28;20042;-75
2023/06/27 03:34:24;;;;;;;7.30;5.00;;;;;;;14.68;100.00;100756.16;4974888;28;20073;-77
2023/06/27 03:36:51;;;;;;;10.68;5.18;;;;;;;14.65;100.00;100756.28;4958491;28;20460;-77
2023/06/27 03:39:18;;;;;;;7.68;5.03;;;;;;;14.66;100.00;100762.47;4958483;28;20133;-76
2023/06/27 03:41:44;;;;;;;9.65;5.45;;;;;;;14.74;100.00;100758.59;4994529;28;20589;-76
2023/06/27 03:44:11;;;;;;;9.57;5.30;;;;;;;14.77;100.00;100761.16;4996761;28;20042;-76
2023/06/27 03:46:38;;;;;;;7.35;5.15;;;;;;;14.81;100.00;100764.59;4987103;28;20084;-76
2023/06/27 03:49:05;;;;;;;8.68;5.25;;;;;;;14.82;100.00;100767.19;4974934;28;20049;-76
2023/06/27 03:51:33;;;;;;;10.77;4.88;;;;;;;14.84;100.00;100772.44;4964920;28;20048;-77
2023/06/27 03:54:02;;;;;;;8.13;4.57;;;;;;;14.90;100.00;100773.09;4980601;28;20077;-76
2023/06/27 03:56:29;;;;;;;8.38;4.88;;;;;;;14.86;100.00;100774.09;4960034;28;20053;-76
2023/06/27 03:58:55;;;;;;;22.27;5.07;;;;;;;14.92;100.00;100775.69;4951630;28;20043;-77
2023/06/27 04:01:22;;;;;;;8.80;5.38;;;;;;;14.88;100.00;100776.72;4964921;28;20052;-76
2023/06/27 04:03:49;;;;;;;8.05;5.25;;;;;;;14.94;100.00;100773.84;4997652;28;20038;-75
2023/06/27 04:06:17;;;;;;;8.75;4.97;;;;;;;14.95;100.00;100770.25;4952407;28;20053;-76
2023/06/27 04:08:43;;;;;;;13.02;5.88;;;;;;;15.05;100.00;100770.78;4984410;28;20062;-76
2023/06/27 04:11:13;;;;;;;9.18;5.10;;;;;;;15.02;100.00;100770.91;4971125;28;20048;-76
2023/06/27 04:13:40;;;;;;;9.18;5.25;;;;;;;14.97;100.00;100773.75;4971477;28;20874;-76
2023/06/27 04:16:06;;;;;;;8.88;4.88;;;;;;;15.00;100.00;100768.28;5001632;28;20069;-76
2023/06/27 04:18:33;;;;;;;9.70;5.47;;;;;;;15.08;100.00;100776.88;4989206;28;20121;-76
2023/06/27 04:21:00;;;;;;;10.60;4.88;;;;;;;15.04;100.00;100787.66;4986130;28;20633;-77
2023/06/27 04:23:26;;;;;;;8.40;5.28;;;;;;;15.08;100.00;100774.19;4992122;28;20133;-77
2023/06/27 04:26:17;;;;;;;10.27;4.97;;;;;;;15.17;100.00;100775.66;4976025;28;20069;-77
2023/06/27 04:28:44;;;;;;;8.75;4.50;;;;;;;15.17;100.00;100765.88;4989949;28;20121;-77
2023/06/27 04:31:11;;;;;;;13.88;5.10;;;;;;;15.08;100.00;100760.91;4969923;28;20038;-76
2023/06/27 04:33:39;;;;;;;9.10;4.55;;;;;;;15.16;100.00;100766.81;4975818;28;20391;-77
2023/06/27 04:36:06;;;;;;;11.35;5.38;;;;;;;15.18;100.00;100772.06;4960165;28;20564;-76
2023/06/27 04:38:37;;;;;;;12.63;5.43;;;;;;;15.22;100.00;100760.38;4962705;28;20046;-77
2023/06/27 04:41:08;;;;;;;10.32;5.72;;;;;;;15.23;100.00;100762.13;4973334;28;20046;-77
2023/06/27 04:43:36;;;;;;;8.60;4.63;;;;;;;15.28;100.00;100757.47;4959716;28;20046;-77
2023/06/27 04:46:03;;;;;;;8.30;4.28;;;;;;;15.28;100.00;100759.25;4975670;28;20046;-77
2023/06/27 04:48:30;;;;;;;13.30;4.25;;;;;;;15.27;100.00;100755.75;4989490;28;20045;-76
2023/06/27 04:50:57;;;;;;;7.07;4.32;;;;;;;15.26;100.00;100761.13;4975595;28;20038;-75
2023/06/27 04:53:24;;;;;;;7.70;4.57;;;;;;;15.24;100.00;100757.66;4981273;28;20053;-76
2023/06/27 04:55:52;;;;;;;8.32;4.03;;;;;;;15.20;100.00;100754.22;4990702;28;20125;-77
2023/06/27 04:58:19;;;;;;;10.00;4.18;;;;;;;15.23;100.00;100750.59;4974533;28;20053;-76
2023/06/27 05:00:51;;;;;;;13.15;4.93;;;;;;;15.31;100.00;100761.84;4973179;28;20417;-76
2023/06/27 05:03:18;;;;;;;10.98;4.55;;;;;;;15.32;100.00;100755.56;4974236;28;20034;-76
2023/06/27 05:05:45;;;;;;;7.75;4.30;;;;;;;15.24;100.00;100749.69;4957789;28;20141;-76
2023/06/27 05:08:12;;;;;;;7.60;3.42;;;;;;;15.30;100.00;100765.38;4990557;28;20070;-77
2023/06/27 05:10:38;;;;;;;8.98;4.20;;;;;;;15.40;100.00;100757.00;4971162;28;20038;-77
2023/06/27 05:13:05;;;;;;;11.48;4.50;;;;;;;15.43;100.00;100767.53;4992192;28;20125;-77
2023/06/27 05:15:32;;;;;;;7.05;3.88;;;;;;;15.59;100.00;100765.13;4994922;28;20103;-76
2023/06/27 05:18:08;;;;;;;6.00;3.47;;;;;;;15.85;100.00;100764.13;4973856;28;20042;-76
2023/06/27 05:20:35;;;;;;;7.35;3.88;;;;;;;16.18;100.00;100759.22;4978116;28;20045;-77
2023/06/27 05:23:01;;;;;;;7.22;3.97;;;;;;;16.42;100.00;100751.09;4990811;28;20132;-76
2023/06/27 05:25:29;;;;;;;8.52;3.90;;;;;;;16.46;100.00;100748.22;4973857;28;20052;-76
2023/06/27 05:27:56;;;;;;;14.27;3.55;;;;;;;16.52;100.00;100750.63;4987858;28;20046;-77
2023/06/27 05:30:23;;;;;;;6.00;3.55;;;;;;;16.36;100.00;100754.88;4986171;28;20037;-76
2023/06/27 05:32:49;;;;;;;6.78;4.20;;;;;;;16.39;100.00;100757.41;4972479;28;20533;-76
2023/06/27 05:35:16;;;;;;;7.93;4.03;;;;;;;16.32;100.00;100758.63;4962198;28;20065;-77
2023/06/27 05:37:43;;;;;;;6.68;3.75;;;;;;;16.31;100.00;100754.22;4960344;28;20046;-76
2023/06/27 05:40:11;;;;;;;8.82;3.45;;;;;;;16.54;100.00;100755.91;4972530;28;20039;-76
2023/06/27 05:42:37;;;;;;;9.13;3.10;;;;;;;16.87;100.00;100751.75;4970529;28;20120;-77
2023/06/27 05:45:05;;;;;;;8.93;3.60;;;;;;;17.60;94.93;100768.00;4972238;28;20061;-76
2023/06/27 05:47:31;;;;;;;6.90;4.03;;;;;;;18.09;86.28;100753.13;4958245;28;20054;-76
2023/06/27 05:49:58;;;;;;;6.82;3.22;;;;;;;18.73;84.51;100762.34;4983004;28;20398;-76
2023/06/27 05:52:25;;;;;;;10.57;3.45;;;;;;;19.19;80.36;100763.44;4984109;28;20056;-75
2023/06/27 05:54:52;;;;;;;6.40;2.80;;;;;;;20.14;72.83;100764.31;4985963;28;20046;-77
2023/06/27 05:57:18;;;;;;;6.93;3.30;;;;;;;21.67;66.14;100762.97;4969585;28;20047;-77
2023/06/27 05:59:45;;;;;;;9.23;2.72;;;;;;;22.70;60.96;100775.81;4971009;28;20042;-76
2023/06/27 06:02:12;;;;;;;8.00;2.80;;;;;;;22.78;58.32;100768.06;4977461;28;20054;-75
2023/06/27 06:04:39;;;;;;;6.05;2.65;;;;;;;22.27;59.92;100777.88;4976868;28;20042;-77
2023/06/27 06:07:05;;;;;;;7.45;2.97;;;;;;;21.57;62.10;100777.97;4989122;28;20399;-75
2023/06/27 06:09:32;;;;;;;6.50;3.30;;;;;;;21.42;60.92;100769.06;4986920;28;20517;-76
2023/06/27 06:12:00;;;;;;;7.32;3.00;;;;;;;20.71;63.06;100779.75;4956570;28;20129;-77
2023/06/27 06:14:26;;;;;;;6.82;3.28;;;;;;;20.30;67.76;100792.94;4967790;28;20047;-77
2023/06/27 06:16:53;;;;;;;6.22;3.22;;;;;;;20.40;70.67;100794.97;4998216;28;20046;-77
2023/06/27 06:19:20;;;;;;;5.85;2.80;;;;;;;20.11;67.76;100782.41;4971700;28;20061;-76
2023/06/27 06:21:46;;;;;;;6.03;3.03;;;;;;;20.09;72.23;100795.03;4986572;28;20038;-76
2023/06/27 06:24:16;;;;;;;6.65;3.15;;;;;;;19.62;74.36;100799.47;4962446;28;20045;-77
2023/06/27 06:26:43;;;;;;;7.18;3.30;;;;;;;19.39;73.20;100795.34;4983983;28;20046;-76
2023/06/27 06:29:13;;;;;;;6.75;3.00;;;;;;;19.10;72.51;100798.75;4997705;28;20077;-78
2023/06/27 06:31:40;;;;;;;5.57;2.95;;;;;;;19.11;74.27;100800.47;4967289;28;20481;-77
2023/06/27 06:34:07;;;;;;;8.68;3.13;;;;;;;19.09;74.03;100803.25;4981617;28;20042;-77
2023/06/27 06:36:34;;;;;;;15.35;6.35;;;;;;;19.05;74.46;100801.66;4976529;28;20044;-77
2023/06/27 06:39:01;;;;;;;8.13;3.28;;;;;;;19.24;74.56;100792.63;4985588;28;20069;-76
2023/06/27 06:41:28;;;;;;;8.57;3.10;;;;;;;19.36;73.04;100794.66;4950586;28;20688;-76
2023/06/27 06:43:55;;;;;;;5.40;2.80;;;;;;;19.16;70.84;100794.88;4986459;28;20049;-77
2023/06/27 06:46:23;;;;;;;7.20;2.88;;;;;;;19.11;73.04;100803.16;4987692;28;20053;-77
2023/06/27 06:48:51;;;;;;;6.10;2.67;;;;;;;19.25;73.88;100797.03;4967520;28;20081;-77
2023/06/27 06:51:18;;;;;;;7.25;2.80;;;;;;;19.45;72.37;100796.84;4972052;28;20048;-78
2023/06/27 06:53:45;;;;;;;9.57;3.17;;;;;;;19.72;68.68;100799.81;4976642;28;20458;-76
2023/06/27 06:56:11;;;;;;;6.03;2.90;;;;;;;19.86;65.37;100804.41;4987792;28;20061;-77
2023/06/27 06:58:38;;;;;;;4.82;2.63;;;;;;;20.01;66.16;100797.28;4967663;28;20042;-76
2023/06/27 07:01:05;;;;;;;7.20;2.72;;;;;;;19.81;63.72;100801.97;4974159;28;20038;-77
2023/06/27 07:03:33;;;;;;;5.15;2.60;;;;;;;19.75;63.20;100801.47;5002608;28;20035;-77
2023/06/27 07:06:00;;;;;;;5.22;2.25;;;;;;;19.82;64.33;100794.81;4975894;28;20069;-77
2023/06/27 07:08:27;;;;;;;4.90;2.28;;;;;;;19.74;63.43;100797.06;4988843;28;20594;-77
2023/06/27 07:10:53;;;;;;;4.68;2.33;;;;;;;19.83;63.17;100792.03;4987018;28;20035;-77
2023/06/27 07:13:20;;;;;;;6.63;2.70;;;;;;;19.74;61.92;100805.97;4977386;28;20066;-77
2023/06/27 07:15:47;;;;;;;5.93;2.08;;;;;;;19.71;60.49;100802.59;4983647;28;20041;-78
2023/06/27 07:18:13;;;;;;;8.23;2.45;;;;;;;20.02;60.22;100791.00;4987028;28;20096;-77
2023/06/27 07:20:40;;;;;;;4.57;2.10;;;;;;;20.30;61.46;100790.25;4991378;28;20030;-77
2023/06/27 07:23:07;;;;;;;4.00;1.90;;;;;;;20.35;55.11;100791.72;4990906;28;20048;-77
2023/06/27 07:25:36;;;;;;;5.13;2.10;;;;;;;20.38;57.42;100796.91;4987976;28;20038;-77
2023/06/27 07:28:03;;;;;;;4.38;1.98;;;;;;;20.49;57.02;100789.09;5003754;28;20037;-77
2023/06/27 07:30:30;;;;;;;5.40;2.05;;;;;;;20.68;61.27;100791.56;4972309;28;20034;-76
2023/06/27 07:32:57;;;;;;;8.80;2.53;;;;;;;20.69;56.23;100790.59;4978380;28;20053;-76
2023/06/27 07:35:23;;;;;;;6.40;2.28;;;;;;;20.86;57.48;100780.66;4962730;28;20039;-77
2023/06/27 07:37:50;;;;;;;2.28;1.77;;;;;;;21.10;56.34;100779.09;4971458;28;20047;-77
2023/06/27 07:40:17;;;;;;;2.95;1.77;;;;;;;21.15;54.84;100781.53;4987535;28;20413;-77
2023/06/27 07:42:43;;;;;;;5.35;1.42;;;;;;;21.15;57.65;100771.63;4976508;28;20391;-77
2023/06/27 07:45:10;;;;;;;4.30;1.80;;;;;;;20.76;54.70;100783.00;4981936;28;20097;-79
2023/06/27 07:47:37;;;;;;;3.28;1.90;;;;;;;20.76;57.68;100783.00;4990540;28;20054;-77
2023/06/27 07:50:04;;;;;;;5.68;2.22;;;;;;;20.96;56.82;100776.44;4971661;28;20034;-77
2023/06/27 07:52:31;;;;;;;4.38;1.70;;;;;;;21.25;54.49;100766.53;4986903;28;20743;-77
2023/06/27 07:54:57;;;;;;;3.55;2.10;;;;;;;21.09;55.70;100772.00;4992921;28;20049;-76
2023/06/27 07:57:24;;;;;;;4.28;1.73;;;;;;;21.38;55.11;100772.06;4990368;28;20497;-76
2023/06/27 07:59:51;;;;;;;3.03;1.40;;;;;;;21.30;54.92;100768.03;4974097;28;20505;-77
2023/06/27 08:02:17;;;;;;;6.10;1.98;;;;;;;21.72;55.38;100768.06;4994532;28;20038;-77
2023/06/27 08:04:44;;;;;;;5.40;2.53;;;;;;;21.75;50.27;100754.41;4975766;28;20038;-77
2023/06/27 08:07:11;;;;;;;3.38;1.83;;;;;;;21.43;50.38;100772.59;4970517;28;20477;-78
2023/06/27 08:09:38;;;;;;;6.72;1.88;;;;;;;21.51;52.46;100759.53;4969481;28;20042;-76
2023/06/27 08:12:06;;;;;;;2.45;1.45;;;;;;;21.79;53.11;100764.00;4971533;28;20092;-77
2023/06/27 08:14:33;;;;;;;7.28;2.05;;;;;;;21.84;51.26;100757.34;5025001;28;20042;-77
2023/06/27 08:17:00;;;;;;;5.05;1.60;;;;;;;21.57;52.97;100756.47;4974655;28;20041;-76
2023/06/27 08:19:27;;;;;;;3.50;1.63;;;;;;;;;;4965001;28;20137;-77
2023/06/27 08:21:54;;;;;;;4.55;1.88;;;;;;;21.73;52.05;100751.81;5015389;28;20418;-77
2023/06/27 08:24:20;;;;;;;5.28;1.70;;;;;;;21.34;53.83;100748.03;4995614;28;20061;-76
2023/06/27 08:26:49;;;;;;;2.70;1.73;;;;;;;21.46;56.79;100745.56;4975411;28;20185;-77
2023/06/27 08:29:16;;;;;;;3.70;1.52;;;;;;;21.70;52.35;100735.91;4954894;28;20481;-77
2023/06/27 08:31:43;;;;;;;4.30;2.13;;;;;;;22.16;53.83;100738.22;4983176;28;20486;-76
2023/06/27 08:34:10;;;;;;;3.22;1.92;;;;;;;22.42;53.39;100739.16;4975642;28;20089;-76
2023/06/27 08:36:37;;;;;;;3.83;1.50;;;;;;;22.40;52.55;100724.94;4978406;28;20085;-77
2023/06/27 08:39:03;;;;;;;10.30;2.22;;;;;;;22.00;50.61;100740.19;4976722;28;20034;-76
2023/06/27 08:41:30;;;;;;;3.22;1.90;;;;;;;22.05;49.37;100736.25;4992429;28;20512;-76
2023/06/27 08:43:57;;;;;;;6.93;2.20;;;;;;;21.53;52.36;100737.00;4994208;28;20093;-77
2023/06/27 08:46:25;;;;;;;3.50;1.50;;;;;;;21.34;53.57;100742.66;4989861;28;20541;-77
2023/06/27 08:48:53;;;;;;;3.13;2.00;;;;;;;20.89;53.78;100737.50;4990184;28;20046;-75
2023/06/27 08:51:21;;;;;;;6.47;2.10;;;;;;;20.72;57.94;100736.72;4991420;28;20061;-77
2023/06/27 08:53:49;;;;;;;8.85;2.80;;;;;;;20.24;66.00;100757.44;4958329;28;20417;-76
2023/06/27 08:56:17;;;;;;;3.55;1.67;;;;;;;20.00;74.20;100761.56;4990634;28;20041;-76
2023/06/27 08:58:48;;;;;;;4.65;2.05;;;;;;;19.27;76.27;100763.03;4972504;28;20046;-76
2023/06/27 09:01:15;;;;;;;3.13;1.70;;;;;;;19.17;83.04;100753.75;4980138;28;20055;-77
2023/06/27 09:03:42;;;;;;;6.07;2.08;;;;;;;18.91;80.37;100761.38;4989865;28;20038;-76
2023/06/27 09:06:09;;;;;;;3.83;1.88;;;;;;;18.51;83.33;100762.59;4958634;28;20042;-76
2023/06/27 09:08:35;;;;;;;7.47;2.38;;;;;;;18.53;91.91;100766.91;4956288;28;20043;-77
2023/06/27 09:11:08;;;;;;;3.15;1.63;;;;;;;18.19;83.36;100778.47;4995758;28;20042;-77
2023/06/27 09:13:37;;;;;;;3.40;1.37;;;;;;;17.80;82.69;100777.75;4980140;28;20073;-77
2023/06/27 09:16:05;;;;;;;4.13;1.67;;;;;;;17.56;89.72;100775.25;4960548;28;20799;-77
2023/06/27 09:18:38;;;;;;;3.05;1.50;;;;;;;17.35;93.94;100763.81;4959349;28;20078;-77
2023/06/27 09:21:10;;;;;;;3.67;2.17;;;;;;;17.24;97.22;100762.59;4976259;28;20030;-77
2023/06/27 09:23:39;;;;;;;2.85;1.40;;;;;;;17.11;100.00;100763.13;4979208;28;20052;-77
2023/06/27 09:26:10;;;;;;;3.35;1.55;;;;;;;16.96;100.00;100760.28;4997633;28;20174;-76
2023/06/27 09:29:03;;;;;;;3.50;1.88;;;;;;;17.29;100.00;100758.75;4987471;28;20042;-76
2023/06/27 09:31:30;;;;;;;3.78;1.85;;;;;;;17.57;100.00;100757.44;5005303;28;20449;-76
2023/06/27 09:34:05;;;;;;;5.78;2.17;;;;;;;17.95;100.00;100756.47;4973848;28;20049;-76
2023/06/27 09:36:39;;;;;;;3.35;1.95;;;;;;;18.59;100.00;100743.47;4988795;28;20552;-76
2023/06/27 09:39:12;;;;;;;4.85;2.53;;;;;;;19.19;100.00;100746.50;4979949;28;20478;-77
2023/06/27 09:41:44;;;;;;;3.92;1.75;;;;;;;19.48;94.95;100742.19;4973087;28;20042;-78
2023/06/27 09:44:22;;;;;;;3.70;1.77;;;;;;;20.01;94.88;100739.19;4953577;28;20550;-77
2023/06/27 09:46:51;;;;;;;4.82;1.60;;;;;;;20.04;82.50;100735.44;4953452;28;20050;-77
2023/06/27 09:49:19;;;;;;;3.28;1.65;;;;;;;20.62;94.40;100726.63;4988403;28;20549;-77
2023/06/27 09:51:49;;;;;;;5.30;2.10;;;;;;;20.99;92.85;100727.91;4972465;28;20085;-77
2023/06/27 09:54:22;;;;;;;2.22;2.03;;;;;;;21.25;84.04;100727.09;5009627;28;20042;-78
2023/06/27 09:56:51;;;;;;;4.25;1.60;;;;;;;21.30;83.28;100716.97;4984576;28;20065;-77
2023/06/27 09:59:22;;;;;;;3.50;2.00;;;;;;;21.20;79.61;100714.94;4964580;28;20145;-77
2023/06/27 10:01:52;;;;;;;4.05;1.83;;;;;;;20.89;74.60;100705.25;4957496;28;20042;-78
2023/06/27 10:04:20;;;;;;;3.25;1.70;;;;;;;20.61;81.90;100711.50;4973311;28;20038;-78
2023/06/27 10:07:07;;;;;;;3.42;1.52;;;;;;;20.30;80.14;100712.44;4950007;28;20038;-77
2023/06/27 10:09:35;;;;;;;3.65;1.90;;;;;;;19.96;84.46;100725.16;4958518;28;20054;-77
2023/06/27 10:12:03;;;;;;;3.70;2.10;;;;;;;19.67;93.72;100759.88;4994155;28;20034;-79
2023/06/27 10:14:30;;;;;;;5.57;2.10;;;;;;;19.34;91.82;100770.66;4956304;28;20118;-80
2023/06/27 10:16:57;;;;;;;2.75;1.50;;;;;;;19.01;87.41;100773.34;4998087;28;20067;-80
2023/06/27 10:19:24;;;;;;;2.97;1.45;;;;;;;18.52;88.64;100775.03;4967008;28;20154;-80
2023/06/27 10:21:51;;;;;;;2.65;1.65;;;;;;;18.30;95.70;100785.94;4973021;28;20466;-79
2023/06/27 10:24:18;;;;;;;2.00;1.50;;;;;;;18.19;98.36;100788.28;4971709;28;20149;-79
2023/06/27 10:26:50;;;;;;;2.50;1.63;;;;;;;18.13;97.30;100785.91;4980194;28;20137;-80
2023/06/27 10:29:17;;;;;;;2.63;1.50;;;;;;;18.06;100.00;100788.03;4983480;28;20089;-79
2023/06/27 10:31:49;;;;;;;3.67;1.75;;;;;;;18.05;97.66;100788.97;4974836;28;20097;-79
2023/06/27 10:34:20;;;;;;;3.90;1.70;;;;;;;17.98;100.00;100791.06;4969455;28;20077;-79
2023/06/27 10:36:56;;;;;;;3.28;1.75;;;;;;;18.10;100.00;100786.06;4981877;28;20046;-79
2023/06/27 10:39:27;;;;;;;3.33;1.50;;;;;;;18.48;100.00;100785.00;4969623;28;20129;-78
2023/06/27 10:42:26;;;;;;;2.90;1.73;;;;;;;19.01;98.47;100772.47;4961318;28;20445;-78
2023/06/27 10:44:56;;;;;;;2.75;1.75;;;;;;;19.03;93.67;100765.22;5000821;28;20129;-79
2023/06/27 10:47:22;;;;;;;3.03;1.48;;;;;;;19.64;96.05;100765.41;4996987;28;20462;-78
2023/06/27 10:49:52;;;;;;;3.70;1.60;;;;;;;20.15;94.07;100749.94;4987285;28;20130;-78
2023/06/27 10:52:20;;;;;;;1.83;1.40;;;;;;;20.34;82.43;100730.06;4994822;28;20035;-79
2023/06/27 10:55:15;;;;;;;3.13;1.45;;;;;;;20.67;82.82;100738.78;4982252;28;20097;-78
2023/06/27 10:57:43;;;;;;;3.30;1.40;;;;;;;20.99;84.34;100731.44;5002734;28;20042;-79
2023/06/27 11:00:29;;;;;;;4.25;1.75;;;;;;;21.01;79.56;100736.72;4972904;28;20497;-79
2023/06/27 11:02:56;;;;;;;2.05;1.45;;;;;;;21.17;77.12;100731.25;4986162;28;20057;-78
2023/06/27 11:05:37;;;;;;;1.30;1.20;;;;;;;21.15;79.04;100728.66;4974708;28;20108;-78
2023/06/27 11:08:08;;;;;;;3.25;1.30;;;;;;;21.49;79.17;100724.69;4978510;28;20047;-79
2023/06/27 11:10:36;;;;;;;2.17;1.20;;;;;;;21.64;77.20;100722.84;4951984;28;20445;-78
2023/06/27 11:13:15;;;;;;;2.92;1.40;;;;;;;21.86;76.62;100720.47;4989874;28;20085;-79
2023/06/27 11:15:44;;;;;;;2.65;1.30;;;;;;;22.05;77.98;100719.25;4975215;28;20077;-80
2023/06/27 11:18:15;;;;;;;2.85;1.40;;;;;;;22.19;75.68;100709.28;4985554;28;20042;-78
2023/06/27 11:20:42;;;;;;;3.00;1.60;;;;;;;22.19;75.07;100709.28;4955094;28;20042;-78
2023/06/27 11:23:11;;;;;;;2.22;1.45;;;;;;;22.07;76.32;100706.53;4974113;28;20046;-78
2023/06/27 11:25:42;;;;;;;4.00;1.20;;;;;;;21.63;70.76;100689.72;4997441;28;20034;-79
2023/06/27 11:28:15;;;;;;;2.40;1.20;;;;;;;21.61;73.86;100706.94;4973479;28;20038;-79